Latest Coastal Weather Observations for Legendre Island

IDW60701

Issued at 2:23 pm WST Wednesday 31 August 2016 (issued every 10 minutes, with the page automatically refreshed every 10 minutes)

About coastal observations | Map of coastal stations | Coastal observations for WA | Marine services | Other Formats
Station Details ID: 004095 Name: LEGENDRE ISLAND Lat: -20.36 Lon: 116.84 Height: 29.0 m
Data from the previous 72 hours. | See also: Recent months at Legendre Island
Date/Time
WST
Temp
°C
Wind Pressure Rain since
9am
mm
Weather Cloud Vis
km
Sea
Height
m
Swell
Dir  Spd
kts
Gust
kts
hPa Trend Height
m
Period
s
Dir
31/02:00pm 25.8 WSW 10 13 1014.6 - - - - - - - - -
31/01:30pm 26.1 WSW 10 12 1015.0 - - - - - - - - -
31/01:00pm 25.4 WSW 6 9 1015.3 - - - - - - - - -
31/12:30pm 25.4 W 7 10 1015.7 - - - - - - - - -
31/12:00pm 25.4 NNW 6 8 1016.1 - - - - - - - - -
31/11:30am 24.8 N 6 7 1016.3 - - - - - - - - -
31/11:00am 25.2 NNE 5 6 1016.5 - - - - - - - - -
31/10:30am 25.2 NNE 4 6 1016.7 - - - - - - - - -
31/10:00am 24.7 NNE 4 5 1016.9 - - - - - - - - -
31/09:30am 24.3 NNE 4 5 1016.8 - - - - - - - - -
31/09:00am 24.1 NNE 4 5 1016.5 - - - - - - - - -
31/08:30am 23.3 NE 2 3 1016.6 - - - - - - - - -
31/08:00am 22.3 SSE 1 2 1016.3 - - - - - - - - -
31/07:30am 20.8 SSE 4 5 1015.7 - - - - - - - - -
31/07:00am 19.6 SSE 4 4 1015.4 - - - - - - - - -
31/06:30am 19.6 SE 4 4 1014.8 - - - - - - - - -
31/06:00am 19.5 SSE 4 5 1014.6 - - - - - - - - -
31/05:30am 19.5 SSE 6 6 1014.1 - - - - - - - - -
31/05:00am 19.8 SE 5 6 1013.8 - - - - - - - - -
31/04:30am 19.8 WNW 4 5 1013.7 - - - - - - - - -
31/04:00am 20.1 NW 2 3 1013.6 - - - - - - - - -
31/03:30am 20.8 CALM 0 0 1014.0 - - - - - - - - -
31/03:00am 21.0 CALM 0 1 1014.2 - - - - - - - - -
31/02:30am 21.4 NW 2 2 1014.3 - - - - - - - - -
31/02:00am 21.1 N 2 3 1014.4 - - - - - - - - -
31/01:30am 21.1 NNW 3 4 1014.5 - - - - - - - - -
31/01:00am 21.2 NNW 3 4 1014.7 - - - - - - - - -
31/12:30am 21.5 N 4 5 1014.8 - - - - - - - - -
31/12:00am 21.7 N 5 7 1015.0 - - - - - - - - -
 
Date/Time
WST
Temp
°C
Wind Pressure Rain since
9am
mm
Weather Cloud Vis
km
Sea
Height
m
Swell
Dir  Spd
kts
Gust
kts
hPa Trend Height
m
Period
s
Dir
30/11:30pm 21.8 N 5 7 1015.2 - - - - - - - - -
30/11:00pm 22.0 N 6 7 1015.1 - - - - - - - - -
30/10:30pm 22.0 N 6 9 1015.3 - - - - - - - - -
30/10:00pm 21.9 N 5 7 1015.6 - - - - - - - - -
30/09:30pm 22.1 NNE 7 8 1015.4 - - - - - - - - -
30/09:00pm 22.2 N 7 11 1015.4 - - - - - - - - -
30/08:30pm 22.3 NNE 9 11 1015.1 - - - - - - - - -
30/08:00pm 22.4 NNE 9 12 1014.6 - - - - - - - - -
30/07:30pm 22.5 NNE 9 11 1014.4 - - - - - - - - -
30/07:00pm 22.5 NNE 9 11 1014.1 - - - - - - - - -
30/06:30pm 22.5 NNE 8 9 1013.7 - - - - - - - - -
30/06:00pm 22.8 NNE 8 10 1013.6 - - - - - - - - -
30/05:30pm 23.1 NNE 9 11 1013.6 - - - - - - - - -
30/05:00pm 23.7 NNE 9 10 1013.4 - - - - - - - - -
30/04:30pm 24.1 NNE 9 11 1013.4 - - - - - - - - -
30/04:00pm 24.4 NE 9 11 1013.4 - - - - - - - - -
30/03:30pm 24.7 NE 9 11 1013.3 - - - - - - - - -
30/03:00pm 24.9 NE 9 11 1013.2 - - - - - - - - -
30/02:30pm 25.3 NE 9 11 1013.2 - - - - - - - - -
30/02:00pm 25.1 NE 9 11 1013.4 - - - - - - - - -
30/01:30pm 25.1 NE 9 11 1013.6 - - - - - - - - -
30/01:00pm 24.5 NE 9 11 1013.8 - - - - - - - - -
30/12:30pm 24.5 ENE 10 12 1014.3 - - - - - - - - -
30/12:00pm 24.5 ENE 12 14 1014.6 - - - - - - - - -
30/11:30am 24.2 ENE 12 15 1014.9 - - - - - - - - -
30/11:00am 24.0 E 14 16 1015.2 - - - - - - - - -
30/10:30am 23.8 E 15 17 1015.4 - - - - - - - - -
30/10:00am 23.5 E 17 19 1015.3 - - - - - - - - -
30/09:30am 23.2 E 19 22 1015.0 - - - - - - - - -
30/09:00am 22.9 E 19 22 1014.8 - - - - - - - - -
30/08:30am 22.4 E 16 18 1014.5 - - - - - - - - -
30/08:00am 22.1 ESE 15 17 1014.3 - - - - - - - - -
30/07:30am 21.3 ESE 14 16 1014.2 - - - - - - - - -
30/07:00am 19.5 ESE 13 15 1014.0 - - - - - - - - -
30/06:30am 17.8 SE 11 14 1013.7 - - - - - - - - -
30/06:00am 17.0 SE 10 11 1013.4 - - - - - - - - -
30/05:30am 17.4 SSE 7 8 1013.0 - - - - - - - - -
30/05:00am 17.4 SSE 6 8 1012.7 - - - - - - - - -
30/04:30am 17.0 S 5 6 1012.4 - - - - - - - - -
30/04:00am 17.5 S 6 6 1012.1 - - - - - - - - -
30/03:30am 17.9 SSW 8 9 1012.0 - - - - - - - - -
30/03:00am 18.7 SW 9 11 1012.1 - - - - - - - - -
30/02:30am 19.4 SW 11 13 1012.0 - - - - - - - - -
30/02:00am 19.9 SW 12 14 1012.3 - - - - - - - - -
30/01:30am 19.9 WSW 12 14 1012.3 - - - - - - - - -
30/01:00am 20.0 WSW 13 15 1012.6 - - - - - - - - -
30/12:30am 20.2 WSW 11 13 1012.9 - - - - - - - - -
30/12:00am 20.2 WSW 12 15 1013.1 - - - - - - - - -
 
Date/Time
WST
Temp
°C
Wind Pressure Rain since
9am
mm
Weather Cloud Vis
km
Sea
Height
m
Swell
Dir  Spd
kts
Gust
kts
hPa Trend Height
m
Period
s
Dir
29/11:30pm 20.3 WSW 10 13 1013.3 - - - - - - - - -
29/11:00pm 20.3 WSW 12 15 1013.1 - - - - - - - - -
29/10:30pm 20.2 WSW 12 15 1013.1 - - - - - - - - -
29/10:00pm 20.3 W 10 12 1013.4 - - - - - - - - -
29/09:30pm 20.4 W 12 15 1013.2 - - - - - - - - -
29/09:00pm 20.4 WSW 13 16 1013.1 - - - - - - - - -
29/08:30pm 20.5 W 14 17 1013.0 - - - - - - - - -
29/08:00pm 20.6 W 13 16 1012.8 - - - - - - - - -
29/07:30pm 20.5 W 14 16 1012.5 - - - - - - - - -
29/07:00pm 20.4 W 15 17 1012.1 - - - - - - - - -
29/06:30pm 20.5 W 14 17 1011.8 - - - - - - - - -
29/06:00pm 20.7 W 13 17 1011.5 - - - - - - - - -
29/05:30pm 21.5 W 14 17 1011.3 - - - - - - - - -
29/05:00pm 22.3 W 12 15 1011.1 - - - - - - - - -
29/04:30pm 22.7 W 12 16 1010.9 - - - - - - - - -
29/04:00pm 22.9 W 14 17 1010.8 - - - - - - - - -
29/03:30pm 23.5 W 14 18 1011.0 - - - - - - - - -
29/03:00pm 24.1 WNW 13 17 1011.2 - - - - - - - - -
29/02:30pm 23.8 WNW 11 14 1011.2 - - - - - - - - -
29/02:00pm 24.4 W 9 12 1011.2 - - - - - - - - -
29/01:30pm 24.2 W 9 13 1011.6 - - - - - - - - -
29/01:00pm 24.4 W 11 14 1012.2 - - - - - - - - -
29/12:30pm 23.6 W 9 13 1012.7 - - - - - - - - -
29/12:00pm 23.8 W 9 12 1013.1 - - - - - - - - -
29/11:30am 23.1 WSW 9 12 1013.4 - - - - - - - - -
29/11:00am 23.3 SSW 11 15 1013.5 - - - - - - - - -
29/10:30am 23.6 SSW 11 14 1013.7 - - - - - - - - -
29/10:00am 22.1 S 9 11 1014.0 - - - - - - - - -
29/09:30am 21.8 SSE 9 11 1014.0 - - - - - - - - -
29/09:00am 20.5 S 11 14 1013.7 - - - - - - - - -
29/08:30am 20.4 S 11 14 1013.5 - - - - - - - - -
29/08:00am 19.6 S 11 14 1013.5 - - - - - - - - -
29/07:30am 18.8 S 9 11 1013.4 - - - - - - - - -
29/07:00am 18.4 S 11 13 1013.4 - - - - - - - - -
29/06:30am 18.3 S 11 14 1012.7 - - - - - - - - -
29/06:00am 18.4 S 11 15 1012.2 - - - - - - - - -
29/05:30am 18.9 SSW 11 13 1012.1 - - - - - - - - -
29/05:00am 19.0 SSW 12 15 1011.6 - - - - - - - - -
29/04:30am 19.0 SSW 13 16 1011.1 - - - - - - - - -
29/04:00am 19.2 SSW 12 15 1011.2 - - - - - - - - -
29/03:30am 19.5 SSW 14 17 1011.5 - - - - - - - - -
29/03:00am 19.6 SSW 14 17 1010.7 - - - - - - - - -
29/02:30am 20.1 SW 14 18 1010.8 - - - - - - - - -
29/02:00am 20.4 SW 14 18 1011.4 - - - - - - - - -
29/01:30am 20.4 SW 14 17 1011.1 - - - - - - - - -
29/01:00am 20.5 SW 17 20 1011.5 - - - - - - - - -
29/12:30am 21.2 WSW 15 18 1011.3 - - - - - - - - -
29/12:00am 21.3 WSW 14 18 1012.0 - - - - - - - - -
 
Date/Time
WST
Temp
°C
Wind Pressure Rain since
9am
mm
Weather Cloud Vis
km
Sea
Height
m
Swell
Dir  Spd
kts
Gust
kts
hPa Trend Height
m
Period
s
Dir
28/11:30pm 21.5 WSW 14 17 1012.3 - - - - - - - - -
28/11:00pm 21.4 WSW 12 15 1011.8 - - - - - - - - -
28/10:30pm 21.3 WSW 14 17 1012.6 - - - - - - - - -
28/10:00pm 21.4 W 16 19 1012.6 - - - - - - - - -
28/09:30pm 21.2 WSW 15 18 1012.7 - - - - - - - - -
28/09:00pm 21.1 W 15 19 1012.5 - - - - - - - - -
28/08:30pm 21.4 W 11 15 1012.3 - - - - - - - - -
28/08:00pm 21.1 W 14 18 1012.3 - - - - - - - - -
28/07:30pm 21.0 W 13 15 1011.9 - - - - - - - - -
28/07:00pm 20.8 WNW 12 14 1011.5 - - - - - - - - -
28/06:30pm 20.5 WNW 11 13 1011.4 - - - - - - - - -
28/06:00pm 20.2 WNW 12 14 1011.6 - - - - - - - - -
28/05:30pm 19.9 W 12 15 1011.8 - - - - - - - - -
28/05:00pm 19.8 W 10 13 1011.7 - - - - - - - - -
28/04:30pm 19.8 W 11 13 1011.7 - - - - - - - - -
28/04:00pm 20.4 WSW 13 16 1011.4 - - - - - - - - -
28/03:30pm 20.3 WSW 13 17 1011.4 - - - - - - - - -
28/03:00pm 20.4 WSW 10 13 1010.9 - - - - - - - - -
28/02:30pm 20.7 WSW 11 13 1011.1 - - - - - - - - -

Other Formats:

Comma delimited format used in spreadsheet applications
http://www.bom.gov.au/fwo/IDW60701/IDW60701.94307.axf

JavaScript Object Notation format (JSON) in row-major order
http://www.bom.gov.au/fwo/IDW60701/IDW60701.94307.json